Time;durP1;ratioP1;P1;durP2;ratioP2;P2;SDS_P1;SDS_P2;PMS_P1;PMS_P2;Temp;Humidity;BMP_temperature;BMP_pressure;BME280_temperature;BME280_humidity;BME280_pressure;Samples;Min_cycle;Max_cycle;Signal;HPM_P1;HPM_P2
2022/12/03 00:00:58;;;;;;;25.67;10.15;;;;;;;3.78;74.44;100779.06;10362202;28;20054;-61
2022/12/03 00:05:59;;;;;;;26.60;10.43;;;;;;;3.76;74.10;100775.69;10365199;28;20136;-62
2022/12/03 00:11:01;;;;;;;26.23;10.73;;;;;;;3.77;74.25;100769.41;10368660;28;20496;-62
2022/12/03 00:16:02;;;;;;;35.30;12.00;;;;;;;3.79;74.31;100761.28;10370985;28;20569;-61
2022/12/03 00:21:04;;;;;;;38.70;12.98;;;;;;;3.77;74.42;100758.78;10371120;28;20048;-62
2022/12/03 00:26:05;;;;;;;30.23;12.27;;;;;;;3.77;74.25;100761.44;10371169;28;20165;-62
2022/12/03 00:31:06;;;;;;;29.00;11.60;;;;;;;3.85;74.29;100762.63;10365797;28;20560;-63
2022/12/03 00:36:08;;;;;;;29.00;11.02;;;;;;;3.89;73.81;100761.41;10370536;28;20058;-63
2022/12/03 00:41:10;;;;;;;29.88;12.35;;;;;;;3.93;73.87;100757.53;10361221;28;20519;-63
2022/12/03 00:46:11;;;;;;;29.60;10.45;;;;;;;3.86;73.83;100757.19;10367825;28;20129;-62
2022/12/03 00:51:18;;;;;;;31.05;10.95;;;;;;;3.90;74.11;100761.28;10373853;28;20488;-62
2022/12/03 00:56:20;;;;;;;27.90;11.05;;;;;;;3.92;73.45;100758.50;10371226;28;20066;-62
2022/12/03 01:01:21;;;;;;;26.33;10.13;;;;;;;3.92;73.48;100761.16;10371707;28;20137;-62
2022/12/03 01:06:23;;;;;;;26.58;10.25;;;;;;;3.94;73.55;100751.25;10364217;28;20513;-63
2022/12/03 01:11:36;;;;;;;24.13;9.60;;;;;;;3.97;73.36;100751.84;10360110;28;20140;-63
2022/12/03 01:16:38;;;;;;;23.70;9.15;;;;;;;4.00;73.24;100752.56;10362089;28;20108;-62
2022/12/03 01:21:44;;;;;;;21.90;9.85;;;;;;;4.00;73.08;100756.06;10360021;28;20046;-63
2022/12/03 01:26:46;;;;;;;21.45;8.80;;;;;;;3.99;73.11;100759.72;10355884;28;20170;-63
2022/12/03 01:37:07;;;;;;;22.60;8.73;;;;;;;3.94;73.15;100764.56;10371263;28;20150;-63
2022/12/03 01:42:16;;;;;;;23.50;9.85;;;;;;;3.99;72.92;100762.38;10354735;28;20082;-63
2022/12/03 01:47:21;;;;;;;22.50;8.48;;;;;;;4.00;72.90;100763.22;10369188;28;20140;-64
2022/12/03 01:52:27;;;;;;;20.52;8.05;;;;;;;4.02;72.60;100767.44;10360382;28;20069;-64
2022/12/03 01:57:51;;;;;;;18.08;7.20;;;;;;;4.00;72.70;100758.72;10359293;28;20133;-63
2022/12/03 02:02:55;;;;;;;20.42;8.88;;;;;;;4.01;72.52;100767.53;10379712;28;20077;-64
2022/12/03 02:07:57;;;;;;;16.73;7.65;;;;;;;4.02;72.53;100766.59;10370467;28;20054;-63
2022/12/03 02:13:09;;;;;;;19.92;7.90;;;;;;;3.98;72.49;100761.50;10366870;28;21030;-63
2022/12/03 02:18:10;;;;;;;18.58;7.70;;;;;;;4.01;72.50;100763.09;10368628;28;20153;-63
2022/12/03 02:23:37;;;;;;;16.75;6.75;;;;;;;4.02;72.30;100770.09;10368059;28;20077;-64
2022/12/03 02:28:38;;;;;;;15.98;6.95;;;;;;;4.00;72.33;100765.88;10365521;28;20136;-63
2022/12/03 02:33:40;;;;;;;15.93;7.57;;;;;;;4.07;72.09;100759.94;10379912;28;20057;-64
2022/12/03 02:38:43;;;;;;;16.10;6.57;;;;;;;4.11;72.22;100763.22;10378649;28;20137;-64
2022/12/03 02:43:44;;;;;;;13.40;6.45;;;;;;;4.14;71.83;100757.63;10371609;28;20045;-64
2022/12/03 02:48:46;;;;;;;14.95;6.90;;;;;;;4.08;71.94;100756.28;10373217;28;20065;-64
2022/12/03 02:53:51;;;;;;;15.55;5.40;;;;;;;4.07;71.98;100749.31;10373823;28;20140;-64
2022/12/03 02:58:57;;;;;;;14.18;5.93;;;;;;;4.07;71.72;100759.94;10368153;28;20134;-64
2022/12/03 03:03:58;;;;;;;14.48;6.75;;;;;;;4.08;71.77;100758.97;10359252;28;20052;-64
2022/12/03 03:08:59;;;;;;;16.90;6.78;;;;;;;4.12;71.63;100759.56;10368630;28;20053;-64
2022/12/03 03:14:02;;;;;;;16.25;6.68;;;;;;;4.07;71.81;100751.09;10368375;28;20084;-64
2022/12/03 03:19:03;;;;;;;12.13;6.70;;;;;;;4.02;71.64;100753.28;10373345;28;20084;-64
2022/12/03 03:24:05;;;;;;;16.95;6.63;;;;;;;4.04;71.81;100754.03;10364585;28;20140;-64
2022/12/03 03:29:06;;;;;;;16.10;6.68;;;;;;;4.01;71.60;100762.22;10361135;28;20052;-64
2022/12/03 03:34:08;;;;;;;14.23;6.05;;;;;;;3.95;71.63;100755.63;10365448;28;20057;-64
2022/12/03 03:39:10;;;;;;;12.55;5.80;;;;;;;3.89;72.00;100751.63;10375517;28;20053;-64
2022/12/03 03:44:12;;;;;;;12.18;5.65;;;;;;;3.83;72.05;100761.88;10370254;28;20140;-64
2022/12/03 03:49:15;;;;;;;14.40;6.43;;;;;;;3.89;71.74;100750.75;10359251;28;20140;-65
2022/12/03 03:54:16;;;;;;;16.73;6.00;;;;;;;3.88;71.82;100751.75;10366051;28;20086;-65
2022/12/03 03:59:18;;;;;;;14.27;6.28;;;;;;;3.83;71.92;100744.16;10370904;28;20085;-65
2022/12/03 04:04:22;;;;;;;16.90;6.18;;;;;;;3.80;71.71;100735.56;10363311;28;20141;-65
2022/12/03 04:09:24;;;;;;;17.35;7.03;;;;;;;3.76;72.09;100734.97;10366225;28;20053;-64
2022/12/03 04:14:25;;;;;;;12.70;6.43;;;;;;;3.70;72.20;100730.97;10369125;28;20053;-65
2022/12/03 04:19:26;;;;;;;15.18;6.72;;;;;;;3.76;71.95;100729.63;10380058;28;20073;-65
2022/12/03 04:24:28;;;;;;;17.58;7.88;;;;;;;3.75;71.87;100722.63;10359864;28;20433;-65
2022/12/03 04:29:29;;;;;;;14.80;5.75;;;;;;;3.71;72.16;100718.50;10361477;28;20054;-65
2022/12/03 04:39:51;;;;;;;13.55;5.60;;;;;;;3.69;72.06;100709.81;10370869;28;20049;-65
2022/12/03 04:44:53;;;;;;;16.90;7.40;;;;;;;3.76;71.88;100703.88;10353518;28;20516;-65
2022/12/03 04:49:54;;;;;;;18.02;7.22;;;;;;;3.80;71.87;100699.19;10355640;28;20046;-65
2022/12/03 04:54:56;;;;;;;15.70;6.38;;;;;;;3.77;71.86;100708.25;10359635;28;20133;-64
2022/12/03 04:59:57;;;;;;;14.50;6.20;;;;;;;3.81;71.75;100713.31;10361525;28;20046;-66
2022/12/03 05:04:58;;;;;;;14.82;6.80;;;;;;;3.85;71.55;100706.78;10365662;28;20052;-65
2022/12/03 05:10:00;;;;;;;18.13;6.43;;;;;;;3.81;71.55;100708.00;10370367;28;20046;-65
2022/12/03 05:15:03;;;;;;;14.75;6.43;;;;;;;3.83;71.79;100719.34;10368700;28;20085;-66
2022/12/03 05:25:24;;;;;;;16.38;6.25;;;;;;;3.91;71.31;100708.94;10366657;28;20136;-66
2022/12/03 05:30:26;;;;;;;17.13;6.38;;;;;;;3.94;71.56;100720.19;10359138;28;20046;-66
2022/12/03 05:35:27;;;;;;;14.13;5.90;;;;;;;3.87;71.47;100721.66;10372818;28;20499;-66
2022/12/03 05:40:29;;;;;;;14.00;6.07;;;;;;;3.92;71.28;100727.44;10376314;28;20144;-65
2022/12/03 05:45:41;;;;;;;11.70;5.75;;;;;;;3.88;71.25;100715.34;10381765;28;20092;-65
2022/12/03 05:50:44;;;;;;;14.40;6.32;;;;;;;3.92;71.41;100722.13;10378053;28;20620;-66
2022/12/03 05:55:46;;;;;;;14.23;5.90;;;;;;;3.96;70.96;100725.38;10373457;28;20649;-66
2022/12/03 06:00:47;;;;;;;12.57;6.07;;;;;;;3.95;71.36;100723.69;10375945;28;20149;-66
2022/12/03 06:05:49;;;;;;;13.50;6.07;;;;;;;4.02;71.06;100726.69;10376557;28;20045;-66
2022/12/03 06:10:50;;;;;;;15.68;6.65;;;;;;;4.03;71.29;100723.06;10381411;28;20459;-65
2022/12/03 06:15:51;;;;;;;14.43;7.03;;;;;;;4.02;71.12;100724.03;10378655;28;20136;-66
2022/12/03 06:20:53;;;;;;;13.07;6.10;;;;;;;4.06;70.87;100712.19;10373291;28;20038;-66
2022/12/03 06:25:54;;;;;;;14.90;6.82;;;;;;;4.05;70.78;100714.00;10359450;28;20465;-66
2022/12/03 06:30:56;;;;;;;14.55;6.40;;;;;;;4.00;70.86;100715.34;10374160;28;20141;-66
2022/12/03 06:35:57;;;;;;;16.55;6.78;;;;;;;4.07;70.63;100714.72;10372329;28;20046;-65
2022/12/03 06:40:58;;;;;;;13.90;6.35;;;;;;;4.07;70.71;100712.06;10377137;28;20574;-66
2022/12/03 06:46:00;;;;;;;14.57;6.95;;;;;;;4.06;70.60;100713.00;10382220;28;20120;-65
2022/12/03 06:51:01;;;;;;;13.40;6.15;;;;;;;4.02;70.71;100700.94;10371197;28;20065;-66
2022/12/03 06:56:03;;;;;;;18.73;7.68;;;;;;;4.00;70.75;100702.03;10376716;28;20105;-66
2022/12/03 07:01:04;;;;;;;15.25;6.95;;;;;;;4.03;70.69;100693.78;10378073;28;20618;-66
2022/12/03 07:06:06;;;;;;;16.75;7.85;;;;;;;3.98;70.73;100697.69;10368632;28;20181;-62
2022/12/03 07:11:29;;;;;;;16.80;7.57;;;;;;;4.04;70.84;100698.16;10370740;28;20493;-62
2022/12/03 07:16:31;;;;;;;18.63;7.25;;;;;;;4.06;70.93;100705.03;10370115;28;20115;-62
2022/12/03 07:21:33;;;;;;;18.00;7.45;;;;;;;4.08;70.94;100700.44;10368490;28;20452;-62
2022/12/03 07:26:35;;;;;;;18.55;7.93;;;;;;;4.17;70.33;100706.84;10369381;28;20050;-62
2022/12/03 07:31:36;;;;;;;20.90;8.85;;;;;;;4.18;70.48;100704.03;10362592;28;20048;-62
2022/12/03 07:36:37;;;;;;;22.30;8.50;;;;;;;4.21;70.31;100707.44;10366384;28;20133;-62
2022/12/03 07:41:39;;;;;;;19.55;7.80;;;;;;;4.15;70.54;100708.78;10372917;28;20121;-62
2022/12/03 07:46:41;;;;;;;20.55;8.10;;;;;;;4.13;70.56;100716.88;10370823;28;20037;-62
2022/12/03 07:51:52;;;;;;;20.80;7.90;;;;;;;4.20;70.37;100711.88;10359734;28;20689;-61
2022/12/03 07:56:53;;;;;;;22.98;8.88;;;;;;;4.28;70.04;100713.91;10371173;28;20088;-61
2022/12/03 08:02:01;;;;;;;18.17;7.75;;;;;;;4.26;70.29;100714.03;10366938;28;20115;-61
2022/12/03 08:07:03;;;;;;;21.13;9.38;;;;;;;4.33;70.20;100704.59;10361775;28;20194;-61
2022/12/03 08:12:14;;;;;;;19.92;8.27;;;;;;;4.43;69.55;100701.19;10356272;28;20072;-61
2022/12/03 08:17:17;;;;;;;21.48;8.95;;;;;;;4.42;70.03;100708.28;10361905;28;20141;-60
2022/12/03 08:22:18;;;;;;;23.85;9.52;;;;;;;4.47;69.73;100707.94;10369613;28;20050;-60
2022/12/03 08:27:20;;;;;;;18.92;8.32;;;;;;;4.35;70.13;100709.78;10360394;28;20919;-61
2022/12/03 08:32:22;;;;;;;19.38;8.68;;;;;;;4.40;70.20;100710.25;10365891;28;20120;-61
2022/12/03 08:37:24;;;;;;;20.13;9.52;;;;;;;4.56;69.59;100710.69;10361638;28;20077;-61
2022/12/03 08:42:40;;;;;;;24.27;9.85;;;;;;;4.63;69.68;100708.31;10364143;28;20078;-61
2022/12/03 08:47:42;;;;;;;22.42;9.57;;;;;;;4.62;69.60;100716.44;10344345;28;20123;-64
2022/12/03 08:52:43;;;;;;;22.60;10.55;;;;;;;4.71;69.75;100716.50;10353346;28;20101;-60
2022/12/03 08:57:44;;;;;;;22.20;9.63;;;;;;;4.79;69.22;100707.88;10362304;28;20612;-60
2022/12/03 09:02:54;;;;;;;25.20;11.07;;;;;;;4.83;69.55;100711.97;10366943;28;20133;-61
2022/12/03 09:07:55;;;;;;;22.38;9.73;;;;;;;4.85;69.32;100701.19;10366579;28;20124;-61
2022/12/03 09:12:56;;;;;;;29.63;11.43;;;;;;;4.82;69.50;100702.31;10366242;28;20053;-61
2022/12/03 09:17:58;;;;;;;27.38;11.30;;;;;;;4.80;69.60;100698.94;10362075;28;20081;-61
2022/12/03 09:22:59;;;;;;;28.25;11.98;;;;;;;4.86;69.27;100701.06;10362003;28;20046;-60
2022/12/03 09:28:01;;;;;;;24.90;11.27;;;;;;;4.97;69.52;100706.31;10358760;28;20126;-61
2022/12/03 09:33:02;;;;;;;22.63;9.57;;;;;;;4.90;69.77;100699.84;10350765;28;20046;-61
2022/12/03 09:38:04;;;;;;;28.42;12.55;;;;;;;5.09;69.51;100698.25;10359145;28;20140;-62
2022/12/03 09:43:05;;;;;;;26.30;12.60;;;;;;;5.27;69.24;100703.81;10362534;28;20128;-61
2022/12/03 09:48:07;;;;;;;28.55;12.20;;;;;;;5.18;69.48;100697.47;10369756;28;20125;-61
2022/12/03 09:53:13;;;;;;;28.00;12.15;;;;;;;5.25;68.96;100684.44;10354541;28;20134;-62
2022/12/03 09:58:17;;;;;;;29.30;12.77;;;;;;;5.28;69.30;100682.38;10364786;28;20141;-61
2022/12/03 10:03:22;;;;;;;26.10;11.27;;;;;;;5.39;68.59;100670.78;10366222;28;20037;-61
2022/12/03 10:08:31;;;;;;;25.88;11.45;;;;;;;5.41;68.84;100670.63;10367536;28;20056;-62
2022/12/03 10:13:36;;;;;;;32.42;14.27;;;;;;;5.46;68.66;100669.25;10365767;28;20054;-61
2022/12/03 10:18:41;;;;;;;33.65;12.25;;;;;;;5.57;68.46;100658.47;10368269;28;20145;-61
2022/12/03 10:23:42;;;;;;;27.58;12.07;;;;;;;5.54;68.81;100657.91;10375487;28;20518;-62
2022/12/03 10:28:46;;;;;;;25.85;11.45;;;;;;;5.61;68.32;100640.38;10374522;28;20080;-62
2022/12/03 10:33:57;;;;;;;29.33;11.93;;;;;;;5.50;68.41;100635.16;10383792;28;20073;-62
2022/12/03 10:39:13;;;;;;;34.50;13.15;;;;;;;5.51;68.68;100632.38;10376776;28;20077;-61
2022/12/03 10:44:21;;;;;;;33.42;13.57;;;;;;;5.55;68.33;100627.59;10377268;28;20145;-62
2022/12/03 10:49:22;;;;;;;;;;;;;;;5.63;68.56;100637.56;10372512;28;20141;-62
2022/12/03 10:54:26;;;;;;;31.42;13.38;;;;;;;5.63;68.25;100635.75;10381599;28;20460;-62
2022/12/03 10:59:32;;;;;;;33.20;13.90;;;;;;;5.67;68.33;100626.50;10354913;28;20142;-62
2022/12/03 11:04:35;;;;;;;29.80;12.27;;;;;;;5.63;68.40;100621.56;10366064;28;20128;-62
2022/12/03 11:09:36;;;;;;;31.25;12.93;;;;;;;5.62;68.00;100627.88;10358692;28;20141;-61
2022/12/03 11:14:53;;;;;;;28.77;12.75;;;;;;;5.56;68.05;100619.44;10363094;28;20054;-62
2022/12/03 11:19:55;;;;;;;30.60;13.15;;;;;;;5.44;68.10;100609.88;10372965;28;20049;-62
2022/12/03 11:25:27;;;;;;;35.60;13.60;;;;;;;5.49;68.23;100612.13;10362890;28;20074;-62
2022/12/03 11:30:47;;;;;;;31.75;13.85;;;;;;;5.55;67.86;100600.94;10365738;28;20045;-62
2022/12/03 11:36:04;;;;;;;33.42;14.27;;;;;;;5.57;68.19;100594.47;10375243;28;20045;-62
2022/12/03 11:41:12;;;;;;;31.50;13.18;;;;;;;5.49;68.12;100599.66;10376239;28;20076;-62
2022/12/03 11:46:14;;;;;;;29.00;12.98;;;;;;;5.47;68.09;100590.97;10355289;28;20078;-62
2022/12/03 11:51:18;;;;;;;29.80;12.25;;;;;;;5.44;68.35;100591.22;10372077;28;20050;-62
2022/12/03 11:56:24;;;;;;;30.48;11.90;;;;;;;5.28;67.82;100586.41;10364868;28;20134;-63
2022/12/03 12:01:33;;;;;;;32.47;13.30;;;;;;;5.41;67.79;100572.00;10369382;28;20621;-62
2022/12/03 12:06:41;;;;;;;37.13;15.15;;;;;;;5.46;67.58;100572.44;10367476;28;20074;-62
2022/12/03 12:11:43;;;;;;;27.17;12.07;;;;;;;5.43;67.42;100564.69;10372792;28;20054;-62
2022/12/03 12:16:54;;;;;;;33.22;12.75;;;;;;;5.42;67.42;100549.69;10368872;28;20120;-62
2022/12/03 12:22:13;;;;;;;31.65;13.18;;;;;;;5.35;68.06;100534.25;10366142;28;20050;-62
2022/12/03 12:27:22;;;;;;;29.67;12.18;;;;;;;5.38;67.54;100534.97;10371922;28;20097;-62
2022/12/03 12:32:28;;;;;;;27.10;12.10;;;;;;;5.36;68.03;100537.75;10370806;28;20256;-63
2022/12/03 12:37:52;;;;;;;32.08;13.20;;;;;;;5.35;67.87;100531.59;10368964;28;20074;-62
2022/12/03 12:43:02;;;;;;;30.83;12.73;;;;;;;5.38;67.96;100537.63;10363326;28;20053;-62
2022/12/03 12:48:22;;;;;;;29.33;12.55;;;;;;;5.38;67.85;100530.47;10374276;28;20115;-62
2022/12/03 12:53:26;;;;;;;34.65;14.13;;;;;;;5.41;67.51;100529.34;10363838;28;20407;-62
2022/12/03 12:58:31;;;;;;;29.73;13.43;;;;;;;5.46;67.41;100535.09;10363814;28;20140;-61
2022/12/03 13:03:36;;;;;;;34.40;13.68;;;;;;;5.38;68.06;100525.13;10358747;28;20046;-62
2022/12/03 13:08:41;;;;;;;31.95;12.68;;;;;;;5.39;67.59;100534.81;10364146;28;20146;-61
2022/12/03 13:13:42;;;;;;;31.83;12.70;;;;;;;5.49;67.33;100540.16;10353229;28;20082;-62
2022/12/03 13:18:47;;;;;;;29.00;13.15;;;;;;;5.43;67.83;100530.03;10366737;28;20077;-64
2022/12/03 13:23:54;;;;;;;32.38;13.20;;;;;;;5.38;67.92;100527.78;10375410;28;20049;-65
2022/12/03 13:28:56;;;;;;;30.80;13.55;;;;;;;5.35;67.66;100531.59;10369057;28;20046;-66
2022/12/03 13:34:00;;;;;;;32.15;13.25;;;;;;;5.37;68.02;100531.44;10337605;28;20488;-66
2022/12/03 13:39:12;;;;;;;35.38;14.00;;;;;;;5.22;67.84;100523.00;10368602;28;20038;-65
2022/12/03 13:44:18;;;;;;;30.00;12.30;;;;;;;5.27;67.51;100526.09;10351375;28;20088;-66
2022/12/03 13:49:22;;;;;;;28.85;14.05;;;;;;;5.31;67.93;100516.84;10365852;28;20077;-63
2022/12/03 13:54:26;;;;;;;28.90;13.05;;;;;;;5.23;67.75;100524.66;10348020;28;20123;-64
2022/12/03 13:59:27;;;;;;;30.58;14.25;;;;;;;5.25;68.02;100509.41;10373557;28;20069;-63
2022/12/03 14:04:29;;;;;;;30.77;13.95;;;;;;;5.28;68.07;100506.47;10358325;28;20096;-62
2022/12/03 14:09:30;;;;;;;33.00;13.40;;;;;;;5.18;67.73;100505.59;10370220;28;20124;-65
2022/12/03 14:14:32;;;;;;;30.15;12.52;;;;;;;5.15;67.84;100509.41;10360407;28;21399;-64
2022/12/03 14:19:34;;;;;;;32.95;13.23;;;;;;;5.11;67.85;100502.63;10337011;28;20082;-63
2022/12/03 14:24:36;;;;;;;30.30;12.30;;;;;;;5.05;68.30;100505.84;10374439;28;20057;-65
2022/12/03 14:29:37;;;;;;;32.70;12.73;;;;;;;4.99;68.22;100502.88;10372877;28;20073;-66
2022/12/03 14:34:39;;;;;;;29.60;12.63;;;;;;;5.05;68.33;100502.34;10360700;28;20045;-66
2022/12/03 14:39:40;;;;;;;30.20;12.45;;;;;;;5.12;68.04;100508.81;10379845;28;20049;-64
2022/12/03 14:44:46;;;;;;;30.55;12.10;;;;;;;5.04;67.68;100501.50;10365584;28;20069;-64
2022/12/03 14:49:49;;;;;;;33.13;12.35;;;;;;;5.01;67.84;100498.25;10375838;28;20092;-63
2022/12/03 14:54:50;;;;;;;30.63;12.70;;;;;;;5.01;68.20;100496.44;10379547;28;20108;-64
2022/12/03 14:59:52;;;;;;;29.80;12.32;;;;;;;4.99;67.89;100495.72;10370327;28;20085;-63
2022/12/03 15:04:53;;;;;;;31.63;12.73;;;;;;;4.96;68.33;100486.19;10365409;28;20082;-63
2022/12/03 15:09:55;;;;;;;25.58;11.68;;;;;;;4.96;68.47;100494.19;10367266;28;20078;-63
2022/12/03 15:14:57;;;;;;;34.10;13.30;;;;;;;4.94;68.12;100498.81;10371918;28;20120;-64
2022/12/03 15:19:58;;;;;;;33.45;12.90;;;;;;;4.94;68.00;100511.28;10372302;28;20046;-63
2022/12/03 15:25:01;;;;;;;33.50;12.63;;;;;;;4.92;68.13;100510.59;10373409;28;20133;-64
2022/12/03 15:30:19;;;;;;;29.88;12.48;;;;;;;4.94;67.85;100514.78;10341754;28;20355;-62
2022/12/03 15:35:20;;;;;;;31.50;12.90;;;;;;;4.95;68.22;100507.63;10359594;28;20140;-63
2022/12/03 15:40:23;;;;;;;29.75;12.10;;;;;;;4.91;68.42;100507.06;10362519;28;20445;-63
2022/12/03 15:45:24;;;;;;;31.02;12.10;;;;;;;5.00;67.90;100509.91;10365331;28;20050;-69
2022/12/03 15:50:26;;;;;;;30.88;13.00;;;;;;;5.07;68.12;100503.03;10378115;28;20061;-70
2022/12/03 15:55:28;;;;;;;31.98;13.07;;;;;;;5.09;67.89;100501.91;10369938;28;20057;-70
2022/12/03 16:00:29;;;;;;;35.25;14.73;;;;;;;5.05;67.72;100513.00;10355435;28;20120;-67
2022/12/03 16:05:31;;;;;;;32.45;12.65;;;;;;;5.02;68.06;100499.97;10374406;28;20056;-68
2022/12/03 16:10:32;;;;;;;33.22;12.65;;;;;;;4.92;68.28;100507.94;10376538;28;20050;-67
2022/12/03 16:15:34;;;;;;;32.35;14.48;;;;;;;4.99;67.97;100510.88;10368032;28;20050;-68
2022/12/03 16:20:35;;;;;;;31.50;12.80;;;;;;;5.04;68.27;100521.97;10373041;28;20072;-70
2022/12/03 16:25:36;;;;;;;35.63;14.35;;;;;;;5.09;67.85;100527.72;10378910;28;20523;-67
2022/12/03 16:30:38;;;;;;;34.65;13.95;;;;;;;5.06;67.98;100520.84;10372731;28;20053;-68
2022/12/03 16:41:21;;;;;;;29.52;12.32;;;;;;;5.01;68.18;100503.59;12510615;22;20498;31
2022/12/03 16:46:25;;;;;;;27.52;11.48;;;;;;;4.96;68.37;100504.84;10242359;28;20055;-68
2022/12/03 16:51:27;;;;;;;30.90;13.18;;;;;;;4.96;68.29;100507.50;10256287;28;20078;-68
2022/12/03 17:07:02;;;;;;;30.40;12.93;;;;;;;5.03;67.95;100502.47;11960411;23;20242;-65
2022/12/03 17:17:20;;;;;;;32.67;12.98;;;;;;;4.97;68.27;100492.38;12353127;22;20069;-66
2022/12/03 17:22:21;;;;;;;32.35;13.02;;;;;;;4.96;68.29;100491.53;10764088;22;20046;-67
2022/12/03 17:32:54;;;;;;;35.85;15.00;;;;;;;5.01;68.39;100491.09;12032361;23;20150;-67
2022/12/03 17:43:19;;;;;;;31.83;13.13;;;;;;;5.04;68.24;100476.69;11693764;23;20438;-67
2022/12/03 17:48:21;;;;;;;36.92;14.02;;;;;;;5.03;68.50;100475.81;10312619;28;20047;-66
2022/12/03 17:53:23;;;;;;;33.63;13.45;;;;;;;5.02;68.07;100468.84;10437654;23;20065;-66
2022/12/03 17:58:25;;;;;;;30.55;13.25;;;;;;;5.04;68.04;100469.53;11116966;23;20116;-67
2022/12/03 18:03:27;;;;;;;32.33;15.15;;;;;;;5.03;68.18;100469.66;10396410;28;20030;-66
2022/12/03 18:08:28;;;;;;;32.92;13.60;;;;;;;5.03;68.19;100469.66;11425477;22;20055;-67
2022/12/03 18:13:30;;;;;;;30.65;13.23;;;;;;;5.03;68.02;100480.31;10378215;28;20069;-66
2022/12/03 18:18:31;;;;;;;31.98;13.10;;;;;;;5.11;68.12;100475.97;10385240;28;20172;-66
2022/12/03 18:23:34;;;;;;;33.40;12.88;;;;;;;5.07;67.95;100471.06;10386642;28;20042;-66
2022/12/03 18:28:35;;;;;;;34.03;13.60;;;;;;;5.03;68.44;100470.50;10388918;28;20052;-66
2022/12/03 18:33:37;;;;;;;32.05;13.70;;;;;;;4.99;68.51;100463.75;10392218;28;20118;-66
2022/12/03 18:38:38;;;;;;;33.30;14.90;;;;;;;4.97;68.57;100471.88;10371799;28;20061;-67
2022/12/03 18:43:41;;;;;;;35.17;14.00;;;;;;;4.96;68.25;100467.56;10389473;28;20046;-67
2022/12/03 18:48:44;;;;;;;30.52;13.18;;;;;;;4.96;68.03;100467.56;10394940;28;20057;-66
2022/12/03 18:53:47;;;;;;;34.03;14.05;;;;;;;4.90;68.03;100465.44;10473850;23;20054;-66
2022/12/03 18:58:48;;;;;;;32.10;13.00;;;;;;;4.96;68.19;100458.72;10831273;23;20054;-65
2022/12/03 19:03:52;;;;;;;30.52;13.95;;;;;;;4.96;68.22;100453.41;10847673;23;20026;-69
2022/12/03 19:08:54;;;;;;;34.25;13.63;;;;;;;4.85;68.46;100454.34;10320335;28;20035;-65
2022/12/03 19:13:57;;;;;;;30.92;12.65;;;;;;;4.87;69.00;100463.03;11155828;23;20022;-67
2022/12/03 19:18:59;;;;;;;33.13;13.95;;;;;;;4.89;68.52;100453.09;10377297;28;20046;-66
2022/12/03 19:24:01;;;;;;;31.83;13.65;;;;;;;4.84;68.62;100455.34;10378674;28;20045;-66
2022/12/03 19:29:22;;;;;;;27.15;12.10;;;;;;;4.91;67.71;100451.13;10377838;28;20065;-67
2022/12/03 19:34:24;;;;;;;32.53;12.57;;;;;;;4.86;68.54;100448.06;10371411;28;20047;-67
2022/12/03 19:39:25;;;;;;;31.85;12.30;;;;;;;4.86;68.52;100440.06;10373834;28;20046;-67
2022/12/03 19:44:27;;;;;;;35.20;14.52;;;;;;;4.76;68.80;100444.53;10382460;28;20046;-66
2022/12/03 19:49:28;;;;;;;33.70;13.20;;;;;;;4.77;68.65;100439.03;10379738;28;20065;-67
2022/12/03 19:54:29;;;;;;;39.95;13.95;;;;;;;4.78;68.40;100447.91;10362705;28;20045;-67
2022/12/03 19:59:31;;;;;;;34.13;13.15;;;;;;;4.82;68.82;100445.78;10367345;28;20070;-66
2022/12/03 20:04:32;;;;;;;33.95;12.82;;;;;;;4.80;68.57;100437.09;10367610;23;20057;-68
2022/12/03 20:09:34;;;;;;;27.92;11.38;;;;;;;4.77;68.49;100448.84;10357995;28;20061;-66
2022/12/03 20:14:35;;;;;;;30.33;11.98;;;;;;;4.78;68.83;100442.56;10360115;28;20049;-66
2022/12/03 20:19:36;;;;;;;33.40;12.23;;;;;;;4.79;68.84;100436.25;10375436;28;20033;-66
2022/12/03 20:24:38;;;;;;;32.47;13.80;;;;;;;4.72;69.44;100433.31;10357006;28;20046;-67
2022/12/03 20:29:39;;;;;;;34.15;13.75;;;;;;;4.74;69.09;100436.66;10373869;28;20046;-68
2022/12/03 20:34:43;;;;;;;30.92;12.63;;;;;;;4.76;69.21;100440.03;10362237;28;20569;-67
2022/12/03 20:39:48;;;;;;;28.10;12.98;;;;;;;4.85;68.93;100441.03;10348243;28;20058;-69
2022/12/03 20:44:51;;;;;;;29.33;11.80;;;;;;;4.88;69.02;100438.09;10342058;28;20069;-67
2022/12/03 20:49:52;;;;;;;33.10;15.13;;;;;;;4.87;69.01;100439.06;10343450;28;20045;-68
2022/12/03 20:54:54;;;;;;;31.55;13.48;;;;;;;4.95;68.51;100425.91;10350308;28;20066;-69
2022/12/03 20:59:56;;;;;;;30.38;13.10;;;;;;;4.95;68.68;100428.56;10321843;28;20100;-67
2022/12/03 21:04:57;;;;;;;30.15;12.82;;;;;;;4.99;68.91;100426.47;10338644;28;20097;-67
2022/12/03 21:09:59;;;;;;;34.20;12.75;;;;;;;5.13;68.78;100430.56;10362585;28;20077;-67
2022/12/03 21:15:00;;;;;;;28.02;11.75;;;;;;;5.15;68.91;100416.13;10339489;28;20047;-66
2022/12/03 21:20:02;;;;;;;26.98;11.82;;;;;;;5.11;68.52;100414.69;10345143;28;20056;-67
2022/12/03 21:25:04;;;;;;;29.05;11.65;;;;;;;5.22;68.20;100416.41;10329017;28;20054;-67
2022/12/03 21:30:06;;;;;;;29.15;11.20;;;;;;;5.27;67.95;100406.19;10347246;28;20489;-69
2022/12/03 21:35:07;;;;;;;28.73;11.82;;;;;;;5.26;67.93;100393.81;10376765;28;20046;-68
2022/12/03 21:40:09;;;;;;;26.45;10.43;;;;;;;5.23;68.00;100395.91;10348607;28;20100;-68
2022/12/03 21:45:11;;;;;;;27.13;10.30;;;;;;;5.21;68.43;100403.22;10330002;28;20073;-70
2022/12/03 21:50:12;;;;;;;28.50;10.38;;;;;;;5.17;67.95;100413.31;10345516;28;20164;-66
2022/12/03 21:55:14;;;;;;;27.88;10.45;;;;;;;5.18;68.31;100414.16;10344204;28;20406;-68
2022/12/03 22:00:15;;;;;;;27.15;11.43;;;;;;;5.18;67.89;100409.66;10350552;28;21098;-68
2022/12/03 22:05:17;;;;;;;25.10;10.45;;;;;;;5.16;67.81;100411.63;10348088;23;20050;-68
2022/12/03 22:10:18;;;;;;;25.40;10.45;;;;;;;5.12;67.82;100400.41;10303493;28;20050;-69
2022/12/03 22:15:20;;;;;;;26.83;10.70;;;;;;;5.18;67.99;100408.84;10296704;28;20494;-69
2022/12/03 22:20:21;;;;;;;24.45;9.38;;;;;;;5.19;67.76;100408.69;10302863;28;20514;-67
2022/12/03 22:25:22;;;;;;;20.92;9.38;;;;;;;5.15;67.44;100404.59;10308777;28;20481;-71
2022/12/03 22:30:24;;;;;;;25.08;10.40;;;;;;;5.14;67.82;100402.94;10313050;28;20133;-69
2022/12/03 22:35:25;;;;;;;21.25;9.57;;;;;;;5.18;67.91;100401.69;10310109;28;20114;-68
2022/12/03 22:40:27;;;;;;;26.33;10.02;;;;;;;5.20;67.58;100390.88;10294415;28;20051;-70
2022/12/03 22:45:28;;;;;;;26.05;9.50;;;;;;;5.20;67.66;100396.22;10306470;28;20073;-69
2022/12/03 22:50:29;;;;;;;21.25;9.30;;;;;;;5.21;67.43;100385.41;10306391;28;20465;-70
2022/12/03 22:55:31;;;;;;;24.35;8.85;;;;;;;5.21;67.44;100388.06;10314823;28;20054;-69
2022/12/03 23:00:39;;;;;;;18.75;8.32;;;;;;;5.21;67.35;100382.72;10332221;28;20057;-70
2022/12/03 23:05:41;;;;;;;24.17;9.82;;;;;;;5.18;67.10;100371.53;10338175;28;20043;-69
2022/12/03 23:10:45;;;;;;;21.95;8.73;;;;;;;5.21;66.87;100372.06;10314760;28;20081;-69
2022/12/03 23:15:50;;;;;;;22.88;9.15;;;;;;;5.12;67.13;100367.59;10310823;28;20141;-69
2022/12/03 23:20:54;;;;;;;21.02;8.20;;;;;;;5.01;67.86;100371.22;10305432;28;20077;-67
2022/12/03 23:26:07;;;;;;;25.40;9.93;;;;;;;4.96;67.43;100358.34;10316066;28;20486;-70
2022/12/03 23:31:19;;;;;;;24.25;10.75;;;;;;;4.92;67.77;100359.59;10327688;28;20036;-68
2022/12/03 23:36:22;;;;;;;23.40;9.93;;;;;;;4.84;68.05;100348.81;10354085;28;20053;-67
2022/12/03 23:41:23;;;;;;;29.23;11.40;;;;;;;4.76;67.91;100340.69;10344540;28;20066;-68
2022/12/03 23:46:26;;;;;;;22.85;10.20;;;;;;;4.81;67.58;100348.25;10380088;28;20073;-67
2022/12/03 23:51:27;;;;;;;24.33;10.50;;;;;;;4.83;67.81;100344.44;10384051;28;20053;-69